createdAt,value
2018-04-26T00:00:22.269Z,0.00
2018-04-26T00:01:22.289Z,0.00
2018-04-26T00:02:22.396Z,0.00
2018-04-26T00:03:22.316Z,0.00
2018-04-26T00:04:22.329Z,0.00
2018-04-26T00:05:22.359Z,0.00
2018-04-26T00:06:22.491Z,0.00
2018-04-26T00:07:22.476Z,0.00
2018-04-26T00:08:22.406Z,0.00
2018-04-26T00:09:22.408Z,0.00
2018-04-26T00:10:22.430Z,0.00
2018-04-26T00:11:22.454Z,0.00
2018-04-26T00:12:22.616Z,0.00
2018-04-26T00:13:22.481Z,0.00
2018-04-26T00:14:22.497Z,0.00
2018-04-26T00:15:22.634Z,0.00
2018-04-26T00:16:22.530Z,0.00
2018-04-26T00:17:22.812Z,0.00
2018-04-26T00:18:22.562Z,0.00
2018-04-26T00:19:22.568Z,0.00
2018-04-26T00:20:22.590Z,0.00
2018-04-26T00:21:22.601Z,0.00
2018-04-26T00:22:22.724Z,0.00
2018-04-26T00:23:22.761Z,0.00
2018-04-26T00:24:22.775Z,0.00
2018-04-26T00:25:22.672Z,0.00
2018-04-26T00:26:22.674Z,0.00
2018-04-26T00:27:22.924Z,0.00
2018-04-26T00:28:22.713Z,0.00
2018-04-26T00:29:22.859Z,0.00
2018-04-26T00:30:22.873Z,0.00
2018-04-26T00:31:22.768Z,0.00
2018-04-26T00:32:22.890Z,0.00
2018-04-26T00:33:22.799Z,0.00
2018-04-26T00:34:23.009Z,0.00
2018-04-26T00:35:22.839Z,0.00
2018-04-26T00:36:22.839Z,0.00
2018-04-26T00:37:23.084Z,0.00
2018-04-26T00:38:23.005Z,0.00
2018-04-26T00:39:23.016Z,0.00
2018-04-26T00:40:22.904Z,0.00
2018-04-26T00:41:23.047Z,0.00
2018-04-26T00:42:23.164Z,0.00
2018-04-26T00:43:22.955Z,0.00
2018-04-26T00:44:22.977Z,0.00
2018-04-26T00:45:23.005Z,0.00
2018-04-26T00:46:23.012Z,0.00
2018-04-26T00:47:23.129Z,0.00
2018-04-26T00:48:23.036Z,0.00
2018-04-26T00:49:23.178Z,0.00
2018-04-26T00:50:23.074Z,0.00
2018-04-26T00:51:23.208Z,0.00
2018-04-26T00:52:23.324Z,0.00
2018-04-26T00:53:23.129Z,0.00
2018-04-26T00:54:23.257Z,0.00
2018-04-26T00:55:23.273Z,0.00
2018-04-26T00:56:23.165Z,0.00
2018-04-26T00:57:23.411Z,0.00
2018-04-26T00:58:23.205Z,0.00
2018-04-26T00:59:23.335Z,0.00
2018-04-26T01:00:23.235Z,0.00
2018-04-26T01:01:23.367Z,0.00
2018-04-26T01:02:23.486Z,0.00
2018-04-26T01:03:23.279Z,0.00
2018-04-26T01:04:23.289Z,0.00
2018-04-26T01:05:23.312Z,0.00
2018-04-26T01:06:23.323Z,0.00
2018-04-26T01:07:23.445Z,0.00
2018-04-26T01:08:23.352Z,0.00
2018-04-26T01:09:23.396Z,0.00
2018-04-26T01:10:23.383Z,0.00
2018-04-26T01:11:23.403Z,0.00
2018-04-26T01:12:23.646Z,0.00
2018-04-26T01:13:23.559Z,0.00
2018-04-26T01:14:23.439Z,0.00
2018-04-26T01:15:23.474Z,0.00
2018-04-26T01:16:23.606Z,0.00
2018-04-26T01:17:23.592Z,0.00
2018-04-26T01:18:23.515Z,0.00
2018-04-26T01:19:23.531Z,0.00
2018-04-26T01:20:23.547Z,0.00
2018-04-26T01:21:23.565Z,0.00
2018-04-26T01:22:23.674Z,0.00
2018-04-26T01:23:23.588Z,0.00
2018-04-26T01:24:23.603Z,0.00
2018-04-26T01:25:23.627Z,0.00
2018-04-26T01:26:23.638Z,0.00
2018-04-26T01:27:23.774Z,0.00
2018-04-26T01:28:23.893Z,0.00
2018-04-26T01:29:23.676Z,0.00
2018-04-26T01:30:23.708Z,0.00
2018-04-26T01:31:23.715Z,0.00
2018-04-26T01:32:23.851Z,0.00
2018-04-26T01:33:23.840Z,0.00
2018-04-26T01:34:23.887Z,0.00
2018-04-26T01:35:23.774Z,0.00
2018-04-26T01:36:23.796Z,0.00
2018-04-26T01:37:23.802Z,0.00
2018-04-26T01:38:23.983Z,0.00
2018-04-26T01:39:23.966Z,0.00
2018-04-26T01:40:23.975Z,0.00
2018-04-26T01:41:23.872Z,0.00
2018-04-26T01:42:23.882Z,0.00
2018-04-26T01:43:24.024Z,0.00
2018-04-26T01:44:24.013Z,0.00
2018-04-26T01:45:23.928Z,0.00
2018-04-26T01:46:23.950Z,0.00
2018-04-26T01:47:23.965Z,0.00
2018-04-26T01:48:24.103Z,0.00
2018-04-26T01:49:24.096Z,0.00
2018-04-26T01:50:24.006Z,0.00
2018-04-26T01:51:24.151Z,0.00
2018-04-26T01:52:24.034Z,0.00
2018-04-26T01:53:24.058Z,0.00
2018-04-26T01:54:24.292Z,0.00
2018-04-26T01:55:24.206Z,0.00
2018-04-26T01:56:24.093Z,0.00
2018-04-26T01:57:24.240Z,0.00
2018-04-26T01:58:24.143Z,0.00
2018-04-26T01:59:24.249Z,0.00
2018-04-26T02:00:24.285Z,0.00
2018-04-26T02:01:24.185Z,0.00
2018-04-26T02:02:24.195Z,0.00
2018-04-26T02:03:24.331Z,0.00
2018-04-26T02:04:24.445Z,0.00
2018-04-26T02:05:24.235Z,0.00
2018-04-26T02:06:24.377Z,0.00
2018-04-26T02:07:24.257Z,0.00
2018-04-26T02:08:24.406Z,0.00
2018-04-26T02:09:24.396Z,0.00
2018-04-26T02:10:24.317Z,0.00
2018-04-26T02:11:24.322Z,0.00
2018-04-26T02:12:24.350Z,0.00
2018-04-26T02:13:24.481Z,0.00
2018-04-26T02:14:24.474Z,0.00
2018-04-26T02:15:24.396Z,0.00
2018-04-26T02:16:24.529Z,0.00
2018-04-26T02:17:24.429Z,0.00
2018-04-26T02:18:24.557Z,0.00
2018-04-26T02:19:24.676Z,0.00
2018-04-26T02:20:24.474Z,0.00
2018-04-26T02:21:24.486Z,0.00
2018-04-26T02:22:24.492Z,0.00
2018-04-26T02:23:24.518Z,0.00
2018-04-26T02:24:24.673Z,0.00
2018-04-26T02:25:24.545Z,0.00
2018-04-26T02:26:24.678Z,0.00
2018-04-26T02:27:24.697Z,0.00
2018-04-26T02:28:24.712Z,0.00
2018-04-26T02:29:24.705Z,0.00
2018-04-26T02:30:24.615Z,0.00
2018-04-26T02:31:24.637Z,0.00
2018-04-26T02:32:24.773Z,0.00
2018-04-26T02:33:24.785Z,0.00
2018-04-26T02:34:24.700Z,0.00
2018-04-26T02:35:24.841Z,0.00
2018-04-26T02:36:24.830Z,0.00
2018-04-26T02:37:24.845Z,0.00
2018-04-26T02:38:24.739Z,0.00
2018-04-26T02:39:24.752Z,0.00
2018-04-26T02:40:24.991Z,0.00
2018-04-26T02:41:24.792Z,0.00
2018-04-26T02:42:24.799Z,0.00
2018-04-26T02:43:24.935Z,0.00
2018-04-26T02:44:24.833Z,0.00
2018-04-26T02:45:25.066Z,0.00
2018-04-26T02:46:24.864Z,0.00
2018-04-26T02:47:24.870Z,0.00
2018-04-26T02:48:24.892Z,0.00
2018-04-26T02:49:25.026Z,0.00
2018-04-26T02:50:24.916Z,0.00
2018-04-26T02:51:25.036Z,0.00
2018-04-26T02:52:24.947Z,0.00
2018-04-26T02:53:25.090Z,0.00
2018-04-26T02:54:25.102Z,0.00
2018-04-26T02:55:25.004Z,0.00
2018-04-26T02:56:25.231Z,0.00
2018-04-26T02:57:25.033Z,0.00
2018-04-26T02:58:25.034Z,0.00
2018-04-26T02:59:25.049Z,0.00
2018-04-26T03:00:25.065Z,0.00
2018-04-26T03:01:25.309Z,0.00
2018-04-26T03:02:25.222Z,0.00
2018-04-26T03:03:25.111Z,0.00
2018-04-26T03:04:25.251Z,0.00
2018-04-26T03:05:25.271Z,0.00
2018-04-26T03:06:25.383Z,0.00
2018-04-26T03:07:25.179Z,0.00
2018-04-26T03:08:25.295Z,0.00
2018-04-26T03:09:25.204Z,0.00
2018-04-26T03:10:25.228Z,0.00
2018-04-26T03:11:25.327Z,0.00
2018-04-26T03:12:25.253Z,0.00
2018-04-26T03:13:25.388Z,0.00
2018-04-26T03:14:25.290Z,0.00
2018-04-26T03:15:25.288Z,0.00
2018-04-26T03:16:25.532Z,0.00
2018-04-26T03:17:25.327Z,0.00
2018-04-26T03:18:25.335Z,0.00
2018-04-26T03:19:25.494Z,0.00
2018-04-26T03:20:25.367Z,0.00
2018-04-26T03:21:25.611Z,0.00
2018-04-26T03:22:25.523Z,0.00
2018-04-26T03:23:25.408Z,0.00
2018-04-26T03:24:25.434Z,0.00
2018-04-26T03:25:25.453Z,0.00
2018-04-26T03:26:25.571Z,0.00
2018-04-26T03:27:25.483Z,0.00
2018-04-26T03:28:25.610Z,0.00
2018-04-26T03:29:25.499Z,0.00
2018-04-26T03:30:25.643Z,0.00
2018-04-26T03:32:25.672Z,0.00
2018-04-26T03:33:25.688Z,0.00
2018-04-26T03:34:25.575Z,0.00
2018-04-26T03:35:25.588Z,0.00
2018-04-26T03:36:25.711Z,0.00
2018-04-26T03:37:25.792Z,0.00
2018-04-26T03:38:25.643Z,0.00
2018-04-26T03:39:25.778Z,0.00
2018-04-26T03:40:25.789Z,0.00
2018-04-26T03:41:25.806Z,0.00
2018-04-26T03:42:25.795Z,0.00
2018-04-26T03:43:25.836Z,0.00
2018-04-26T03:44:25.722Z,0.00
2018-04-26T03:45:25.746Z,0.00
2018-04-26T03:46:25.880Z,0.00
2018-04-26T03:47:25.927Z,0.00
2018-04-26T03:48:25.785Z,0.00
2018-04-26T03:49:25.799Z,0.00
2018-04-26T03:50:25.939Z,0.00
2018-04-26T03:51:25.828Z,0.00
2018-04-26T03:52:25.957Z,0.00
2018-04-26T03:53:25.984Z,0.00
2018-04-26T03:54:26.006Z,0.00
2018-04-26T03:55:25.901Z,0.00
2018-04-26T03:56:25.907Z,0.00
2018-04-26T03:57:25.912Z,0.00
2018-04-26T03:58:26.161Z,0.00
2018-04-26T03:59:26.073Z,0.00
2018-04-26T04:00:25.970Z,0.00
2018-04-26T04:01:26.105Z,0.00
2018-04-26T04:02:26.119Z,0.00
2018-04-26T04:03:26.109Z,0.00
2018-04-26T04:04:26.030Z,0.00
2018-04-26T04:05:26.045Z,0.00
2018-04-26T04:06:26.054Z,0.00
2018-04-26T04:07:26.074Z,0.00
2018-04-26T04:08:26.359Z,0.00
2018-04-26T04:09:26.222Z,0.00
2018-04-26T04:10:26.238Z,0.00
2018-04-26T04:11:26.124Z,0.00
2018-04-26T04:12:26.148Z,0.00
2018-04-26T04:13:26.434Z,0.00
2018-04-26T04:14:26.169Z,0.00
2018-04-26T04:15:26.197Z,0.00
2018-04-26T04:16:26.328Z,0.00
2018-04-26T04:17:26.340Z,0.00
2018-04-26T04:18:26.459Z,0.00
2018-04-26T04:19:26.369Z,0.00
2018-04-26T04:20:26.259Z,0.00
2018-04-26T04:21:26.275Z,0.00
2018-04-26T04:22:26.298Z,0.00
2018-04-26T04:23:26.402Z,0.00
2018-04-26T04:24:26.446Z,0.00
2018-04-26T04:25:26.460Z,0.00
2018-04-26T04:26:26.348Z,0.00
2018-04-26T04:27:26.376Z,0.00
2018-04-26T04:28:26.604Z,0.00
2018-04-26T04:29:26.520Z,0.00
2018-04-26T04:30:26.533Z,0.00
2018-04-26T04:31:26.418Z,0.00
2018-04-26T04:32:26.563Z,0.00
2018-04-26T04:33:26.679Z,0.00
2018-04-26T04:34:26.594Z,0.00
2018-04-26T04:35:26.495Z,0.00
2018-04-26T04:36:26.622Z,0.00
2018-04-26T04:37:26.518Z,0.00
2018-04-26T04:38:26.652Z,0.00
2018-04-26T04:39:26.768Z,0.00
2018-04-26T04:40:26.681Z,0.00
2018-04-26T04:41:26.695Z,0.00
2018-04-26T04:42:26.714Z,0.00
2018-04-26T04:43:26.725Z,0.00
2018-04-26T04:44:26.840Z,0.00
2018-04-26T04:45:26.755Z,0.00
2018-04-26T04:46:26.650Z,0.00
2018-04-26T04:47:26.784Z,0.00
2018-04-26T04:48:26.680Z,0.00
2018-04-26T04:49:26.814Z,0.00
2018-04-26T04:50:26.929Z,0.00
2018-04-26T04:51:26.715Z,0.00
2018-04-26T04:52:26.738Z,0.00
2018-04-26T04:53:26.872Z,0.00
2018-04-26T04:54:26.758Z,0.00
2018-04-26T04:55:26.774Z,0.00
2018-04-26T04:56:27.018Z,0.00
2018-04-26T04:57:26.934Z,0.00
2018-04-26T04:58:26.946Z,0.00
2018-04-26T04:59:26.963Z,0.00
2018-04-26T05:00:26.975Z,0.00
2018-04-26T05:01:27.091Z,0.00
2018-04-26T05:02:26.879Z,0.00
2018-04-26T05:03:26.902Z,0.00
2018-04-26T05:04:26.907Z,0.00
2018-04-26T05:05:26.921Z,0.00
2018-04-26T05:06:27.051Z,0.00
2018-04-26T05:07:27.126Z,0.00
2018-04-26T05:08:26.975Z,0.00
2018-04-26T05:09:27.106Z,0.00
2018-04-26T05:10:27.000Z,0.00
2018-04-26T05:11:27.239Z,0.00
2018-04-26T05:12:27.153Z,0.00
2018-04-26T05:13:27.165Z,0.00
2018-04-26T05:14:27.184Z,0.00
2018-04-26T05:15:27.066Z,0.00
2018-04-26T05:16:27.311Z,0.00
2018-04-26T05:17:27.110Z,0.00
2018-04-26T05:18:27.240Z,0.00
2018-04-26T05:19:27.136Z,0.00
2018-04-26T05:20:27.142Z,0.00
2018-04-26T05:21:27.389Z,0.00
2018-04-26T05:22:27.172Z,0.00
2018-04-26T05:23:27.196Z,0.00
2018-04-26T05:24:27.328Z,0.00
2018-04-26T05:25:27.345Z,0.00
2018-04-26T05:26:27.344Z,0.00
2018-04-26T05:27:27.244Z,0.00
2018-04-26T05:28:27.388Z,0.00
2018-04-26T05:29:27.272Z,0.00
2018-04-26T05:30:27.295Z,0.00
2018-04-26T05:31:27.416Z,0.00
2018-04-26T05:32:27.447Z,0.00
2018-04-26T05:33:27.459Z,0.00
2018-04-26T05:34:27.356Z,0.00
2018-04-26T05:35:27.489Z,0.00
2018-04-26T05:36:27.490Z,0.00
2018-04-26T05:37:27.390Z,0.00
2018-04-26T05:38:27.411Z,0.00
2018-04-26T05:39:27.546Z,0.00
2018-04-26T05:40:27.576Z,0.00
2018-04-26T05:41:27.547Z,0.00
2018-04-26T05:42:27.472Z,0.00
2018-04-26T05:43:27.604Z,0.00
2018-04-26T05:44:27.621Z,0.00
2018-04-26T05:45:27.509Z,0.00
2018-04-26T05:46:27.749Z,0.00
2018-04-26T05:47:27.688Z,0.00
2018-04-26T05:48:27.552Z,0.00
2018-04-26T05:49:27.698Z,0.00
2018-04-26T05:50:27.707Z,0.00
2018-04-26T05:51:27.821Z,0.00
2018-04-26T05:52:27.624Z,0.00
2018-04-26T05:53:27.634Z,0.00
2018-04-26T05:54:27.653Z,0.00
2018-04-26T05:55:27.783Z,0.00
2018-04-26T05:56:27.668Z,0.00
2018-04-26T05:57:27.792Z,0.00
2018-04-26T05:58:27.711Z,0.00
2018-04-26T05:59:27.839Z,0.00
2018-04-26T06:00:27.725Z,0.00
2018-04-26T06:01:27.868Z,0.00
2018-04-26T06:02:27.765Z,0.00
2018-04-26T06:03:27.918Z,0.00
2018-04-26T06:04:27.912Z,0.00
2018-04-26T06:05:27.813Z,0.00
2018-04-26T06:06:27.818Z,0.00
2018-04-26T06:07:27.865Z,0.00
2018-04-26T06:08:28.072Z,0.00
2018-04-26T06:09:27.865Z,0.00
2018-04-26T06:10:27.872Z,0.00
2018-04-26T06:11:27.887Z,0.00
2018-04-26T06:12:27.902Z,0.00
2018-04-26T06:13:28.015Z,0.00
2018-04-26T06:14:28.057Z,0.00
2018-04-26T06:15:28.072Z,0.00
2018-04-26T06:16:27.972Z,0.00
2018-04-26T06:17:28.099Z,0.00
2018-04-26T06:18:27.995Z,0.00
2018-04-26T06:19:28.115Z,0.00
2018-04-26T06:20:28.020Z,0.00
2018-04-26T06:21:28.031Z,0.00
2018-04-26T06:22:28.053Z,0.00
2018-04-26T06:23:28.062Z,0.00
2018-04-26T06:24:28.168Z,0.00
2018-04-26T06:25:28.100Z,0.00
2018-04-26T06:26:28.230Z,0.00
2018-04-26T06:27:28.116Z,0.00
2018-04-26T06:28:28.133Z,0.00
2018-04-26T06:29:28.261Z,0.00
2018-04-26T06:30:28.160Z,0.00
2018-04-26T06:31:28.189Z,0.00
2018-04-26T06:32:28.318Z,0.00
2018-04-26T06:33:28.332Z,0.00
2018-04-26T06:34:28.331Z,0.00
2018-04-26T06:35:28.358Z,0.00
2018-04-26T06:36:28.373Z,0.00
2018-04-26T06:37:28.262Z,0.00
2018-04-26T06:38:28.277Z,0.00
2018-04-26T06:39:28.415Z,0.00
2018-04-26T06:40:28.405Z,0.00
2018-04-26T06:41:28.447Z,0.00
2018-04-26T06:42:28.343Z,0.00
2018-04-26T06:43:28.475Z,0.00
2018-04-26T06:44:28.485Z,0.00
2018-04-26T06:45:28.651Z,0.00
2018-04-26T06:46:28.392Z,0.00
2018-04-26T06:47:28.409Z,0.00
2018-04-26T06:48:28.543Z,0.00
2018-04-26T06:49:28.430Z,0.00
2018-04-26T06:50:28.724Z,0.00
2018-04-26T06:51:28.464Z,0.00
2018-04-26T06:52:28.604Z,0.00
2018-04-26T06:53:28.519Z,0.00
2018-04-26T06:54:28.630Z,0.00
2018-04-26T06:55:28.670Z,0.00
2018-04-26T06:56:28.661Z,0.00
2018-04-26T06:57:28.560Z,0.00
2018-04-26T06:58:28.689Z,0.00
2018-04-26T06:59:28.587Z,0.00
2018-04-26T07:00:28.784Z,0.00
2018-04-26T07:01:28.733Z,0.00
2018-04-26T07:02:28.626Z,0.00
2018-04-26T07:03:28.634Z,0.00
2018-04-26T07:04:28.772Z,0.00
2018-04-26T07:05:28.667Z,0.00
2018-04-26T07:06:28.778Z,0.00
2018-04-26T07:07:28.816Z,0.00
2018-04-26T07:08:28.702Z,0.00
2018-04-26T07:09:28.716Z,0.00
2018-04-26T07:10:28.858Z,0.00
2018-04-26T07:11:28.760Z,0.00
2018-04-26T07:12:28.985Z,0.00
2018-04-26T07:13:28.773Z,0.00
2018-04-26T07:14:28.797Z,0.00
2018-04-26T07:15:28.823Z,0.00
2018-04-26T07:16:28.815Z,0.00
2018-04-26T07:17:28.981Z,0.00
2018-04-26T07:18:28.852Z,0.00
2018-04-26T07:19:28.860Z,0.00
2018-04-26T07:20:28.881Z,0.00
2018-04-26T07:21:28.902Z,0.00
2018-04-26T07:22:29.184Z,0.00
2018-04-26T07:23:29.043Z,0.00
2018-04-26T07:24:28.929Z,0.00
2018-04-26T07:25:28.950Z,0.00
2018-04-26T07:26:28.972Z,0.00
2018-04-26T07:27:29.088Z,0.00
2018-04-26T07:28:29.115Z,0.00
2018-04-26T07:29:29.131Z,0.00
2018-04-26T07:30:29.031Z,0.00
2018-04-26T07:31:29.165Z,0.00
2018-04-26T07:32:29.322Z,0.00
2018-04-26T07:33:29.067Z,0.00
2018-04-26T07:34:29.075Z,0.00
2018-04-26T07:35:29.215Z,0.00
2018-04-26T07:36:29.229Z,0.00
2018-04-26T07:37:29.270Z,0.00
2018-04-26T07:38:29.139Z,0.00
2018-04-26T07:39:29.144Z,0.00
2018-04-26T07:40:29.163Z,0.00
2018-04-26T07:41:29.307Z,0.00
2018-04-26T07:42:29.304Z,0.00
2018-04-26T07:43:29.329Z,0.00
2018-04-26T07:44:29.347Z,0.00
2018-04-26T07:45:29.363Z,0.00
2018-04-26T07:46:29.258Z,0.00
2018-04-26T07:47:29.410Z,0.00
2018-04-26T07:48:29.282Z,0.00
2018-04-26T07:49:29.417Z,0.00
2018-04-26T07:50:29.317Z,0.00
2018-04-26T07:51:29.330Z,0.00
2018-04-26T07:52:29.487Z,0.00
2018-04-26T07:53:29.481Z,0.00
2018-04-26T07:54:29.375Z,0.00
2018-04-26T07:55:29.383Z,0.00
2018-04-26T07:56:29.516Z,0.00
2018-04-26T07:57:29.413Z,0.00
2018-04-26T07:58:29.568Z,0.00
2018-04-26T07:59:29.559Z,0.00
2018-04-26T08:00:29.446Z,0.00
2018-04-26T08:01:29.501Z,0.00
2018-04-26T08:02:29.476Z,0.00
2018-04-26T08:03:29.499Z,0.00
2018-04-26T08:04:29.657Z,0.00
2018-04-26T08:05:29.524Z,0.00
2018-04-26T08:06:29.660Z,0.00
2018-04-26T08:07:29.561Z,0.00
2018-04-26T08:08:29.557Z,0.00
2018-04-26T08:09:29.740Z,0.00
2018-04-26T08:10:29.719Z,0.00
2018-04-26T08:11:29.729Z,0.00
2018-04-26T08:12:29.630Z,0.00
2018-04-26T08:13:29.636Z,0.00
2018-04-26T08:14:29.806Z,0.00
2018-04-26T08:15:29.662Z,0.00
2018-04-26T08:16:29.683Z,0.00
2018-04-26T08:17:29.689Z,0.00
2018-04-26T08:18:29.830Z,0.00
2018-04-26T08:19:29.716Z,0.00
2018-04-26T08:20:30.012Z,0.00
2018-04-26T08:21:29.753Z,0.00
2018-04-26T08:22:29.781Z,0.00
2018-04-26T08:23:29.789Z,0.00
2018-04-26T08:24:29.806Z,0.00
2018-04-26T08:25:29.957Z,0.00
2018-04-26T08:26:29.821Z,0.00
2018-04-26T08:27:29.833Z,0.00
2018-04-26T08:28:29.854Z,0.00
2018-04-26T08:29:29.988Z,0.00
2018-04-26T08:30:29.913Z,0.00
2018-04-26T08:31:30.116Z,0.00
2018-04-26T08:32:30.032Z,0.00
2018-04-26T08:33:29.928Z,0.00
2018-04-26T08:34:29.932Z,0.00
2018-04-26T08:35:30.074Z,0.00
2018-04-26T08:36:30.061Z,0.00
2018-04-26T08:37:29.992Z,0.00
2018-04-26T08:38:29.992Z,0.00
2018-04-26T08:39:30.018Z,0.00
2018-04-26T08:40:30.028Z,0.00
2018-04-26T08:41:30.317Z,0.00
2018-04-26T08:42:30.046Z,0.00
2018-04-26T08:43:30.058Z,0.00
2018-04-26T08:44:30.088Z,0.00
2018-04-26T08:45:30.123Z,0.00
2018-04-26T08:46:30.382Z,0.00
2018-04-26T08:47:30.117Z,0.00
2018-04-26T08:48:30.142Z,0.00
2018-04-26T08:49:30.274Z,0.00
2018-04-26T08:50:30.160Z,0.00
2018-04-26T08:51:30.332Z,0.00
2018-04-26T08:52:30.315Z,0.00
2018-04-26T08:53:30.329Z,0.00
2018-04-26T08:54:30.231Z,0.00
2018-04-26T08:55:30.257Z,0.00
2018-04-26T08:56:30.346Z,0.00
2018-04-26T08:57:30.257Z,0.00
2018-04-26T08:58:30.287Z,0.00
2018-04-26T08:59:30.415Z,0.00
2018-04-26T09:00:30.311Z,0.00
2018-04-26T09:01:30.546Z,0.00
2018-04-26T09:02:30.336Z,0.00
2018-04-26T09:03:30.346Z,0.00
2018-04-26T09:04:30.365Z,0.00
2018-04-26T09:05:30.372Z,0.00
2018-04-26T09:06:30.664Z,0.00
2018-04-26T09:07:30.526Z,0.00
2018-04-26T09:08:30.540Z,0.00
2018-04-26T09:09:30.444Z,0.00
2018-04-26T09:10:30.575Z,0.00
2018-04-26T09:11:30.569Z,0.00
2018-04-26T09:12:30.469Z,0.00
2018-04-26T09:13:30.614Z,0.00
2018-04-26T09:14:30.500Z,0.00
2018-04-26T09:15:30.643Z,0.00
2018-04-26T09:16:30.537Z,0.00
2018-04-26T09:17:30.820Z,5.63
2018-04-26T09:18:30.557Z,5.63
2018-04-26T09:19:30.578Z,5.63
2018-04-26T09:20:30.587Z,5.63
2018-04-26T09:21:30.724Z,11.25
2018-04-26T09:22:30.891Z,11.25
2018-04-26T09:23:30.640Z,11.25
2018-04-26T09:24:30.770Z,16.88
2018-04-26T09:25:30.785Z,16.88
2018-04-26T09:26:30.676Z,16.88
2018-04-26T09:27:30.834Z,22.50
2018-04-26T09:28:30.828Z,22.50
2018-04-26T09:29:30.839Z,28.13
2018-04-26T09:30:30.857Z,28.13
2018-04-26T09:31:30.747Z,33.75
2018-04-26T09:32:31.030Z,39.38
2018-04-26T09:33:30.898Z,39.38
2018-04-26T09:34:30.908Z,45.00
2018-04-26T09:35:30.810Z,50.63
2018-04-26T09:36:30.821Z,50.63
2018-04-26T09:37:31.050Z,56.25
2018-04-26T09:38:30.852Z,61.88
2018-04-26T09:39:30.851Z,61.88
2018-04-26T09:40:30.992Z,67.50
2018-04-26T09:41:30.887Z,73.13
2018-04-26T09:42:30.995Z,73.13
2018-04-26T09:43:31.036Z,78.75
2018-04-26T09:44:30.926Z,84.38
2018-04-26T09:45:31.065Z,90.00
2018-04-26T09:46:30.967Z,90.00
2018-04-26T09:47:31.242Z,95.63
2018-04-26T09:48:31.111Z,95.63
2018-04-26T09:49:31.008Z,101.25
2018-04-26T09:50:31.106Z,106.88
2018-04-26T09:51:31.149Z,106.88
2018-04-26T09:52:31.150Z,106.88
2018-04-26T09:53:31.053Z,112.50
2018-04-26T09:54:31.194Z,112.50
2018-04-26T09:55:31.210Z,118.13
2018-04-26T09:56:31.103Z,112.50
2018-04-26T09:57:31.272Z,118.13
2018-04-26T09:58:31.269Z,118.13
2018-04-26T09:59:31.264Z,118.13
2018-04-26T10:00:31.155Z,123.75
2018-04-26T10:01:31.294Z,123.75
2018-04-26T10:02:31.469Z,123.75
2018-04-26T10:03:31.203Z,129.38
2018-04-26T10:04:31.337Z,135.00
2018-04-26T10:05:31.234Z,135.00
2018-04-26T10:06:31.372Z,140.63
2018-04-26T10:07:31.420Z,146.25
2018-04-26T10:08:31.268Z,146.25
2018-04-26T10:09:31.294Z,151.88
2018-04-26T10:10:31.315Z,157.50
2018-04-26T10:11:31.441Z,157.50
2018-04-26T10:12:31.456Z,157.50
2018-04-26T10:13:31.352Z,163.13
2018-04-26T10:14:31.358Z,163.13
2018-04-26T10:15:31.381Z,168.75
2018-04-26T10:16:31.385Z,174.38
2018-04-26T10:17:31.629Z,180.00
2018-04-26T10:18:31.419Z,191.25
2018-04-26T10:19:31.441Z,196.88
2018-04-26T10:20:31.448Z,202.50
2018-04-26T10:21:31.465Z,202.50
2018-04-26T10:22:31.706Z,202.50
2018-04-26T10:23:31.500Z,202.50
2018-04-26T10:24:31.511Z,208.13
2018-04-26T10:25:31.651Z,213.75
2018-04-26T10:26:31.667Z,225.00
2018-04-26T10:27:31.651Z,241.88
2018-04-26T10:28:31.699Z,258.75
2018-04-26T10:29:31.612Z,270.00
2018-04-26T10:30:31.731Z,275.63
2018-04-26T10:31:31.629Z,275.63
2018-04-26T10:32:31.783Z,281.25
2018-04-26T10:33:31.677Z,298.13
2018-04-26T10:34:31.791Z,320.63
2018-04-26T10:35:31.682Z,326.25
2018-04-26T10:36:31.703Z,326.25
2018-04-26T10:37:31.823Z,320.63
2018-04-26T10:38:31.854Z,320.63
2018-04-26T10:39:31.755Z,315.00
2018-04-26T10:40:31.764Z,303.75
2018-04-26T10:41:31.789Z,292.50
2018-04-26T10:42:31.900Z,292.50
2018-04-26T10:43:31.936Z,303.75
2018-04-26T10:44:31.832Z,315.00
2018-04-26T10:45:31.849Z,320.63
2018-04-26T10:46:31.985Z,315.00
2018-04-26T10:47:31.974Z,309.38
2018-04-26T10:48:31.898Z,315.00
2018-04-26T10:49:31.908Z,326.25
2018-04-26T10:50:31.924Z,337.50
2018-04-26T10:51:31.946Z,343.13
2018-04-26T10:52:32.186Z,343.13
2018-04-26T10:53:31.973Z,337.50
2018-04-26T10:54:32.115Z,337.50
2018-04-26T10:55:32.007Z,343.13
2018-04-26T10:56:32.037Z,360.00
2018-04-26T10:57:32.192Z,376.88
2018-04-26T10:58:32.186Z,388.13
2018-04-26T10:59:32.080Z,399.38
2018-04-26T11:00:32.085Z,399.38
2018-04-26T11:01:32.122Z,399.38
2018-04-26T11:02:32.401Z,393.75
2018-04-26T11:03:32.141Z,399.38
2018-04-26T11:04:32.170Z,405.00
2018-04-26T11:05:32.193Z,410.63
2018-04-26T11:06:32.320Z,410.63
2018-04-26T11:07:32.371Z,416.25
2018-04-26T11:08:32.229Z,421.88
2018-04-26T11:09:32.241Z,427.50
2018-04-26T11:10:32.266Z,438.75
2018-04-26T11:11:32.290Z,455.63
2018-04-26T11:12:32.402Z,466.88
2018-04-26T11:13:32.311Z,472.50
2018-04-26T11:14:32.334Z,466.88
2018-04-26T11:15:32.451Z,461.25
2018-04-26T11:16:32.369Z,461.25
2018-04-26T11:17:32.379Z,455.63
2018-04-26T11:18:32.502Z,450.00
2018-04-26T11:19:32.541Z,450.00
2018-04-26T11:20:32.561Z,455.63
2018-04-26T11:21:32.578Z,472.50
2018-04-26T11:22:32.479Z,478.13
2018-04-26T11:23:32.808Z,483.75
2018-04-26T11:24:32.514Z,483.75
2018-04-26T11:25:32.644Z,478.13
2018-04-26T11:26:32.691Z,500.63
2018-04-26T11:27:32.559Z,523.13
2018-04-26T11:28:32.800Z,540.00
2018-04-26T11:29:32.589Z,556.88
2018-04-26T11:30:32.618Z,590.63
2018-04-26T11:31:32.625Z,624.38
2018-04-26T11:32:32.648Z,618.75
2018-04-26T11:33:32.823Z,601.88
2018-04-26T11:34:32.752Z,607.50
2018-04-26T11:35:32.712Z,607.50
2018-04-26T11:36:32.715Z,607.50
2018-04-26T11:37:32.738Z,601.88
2018-04-26T11:38:32.901Z,596.25
2018-04-26T11:39:32.890Z,596.25
2018-04-26T11:40:32.911Z,601.88
2018-04-26T11:41:32.928Z,618.75
2018-04-26T11:42:32.948Z,646.88
2018-04-26T11:43:32.947Z,658.13
2018-04-26T11:44:32.856Z,652.50
2018-04-26T11:45:32.881Z,641.25
2018-04-26T11:46:32.893Z,680.63
2018-04-26T11:47:32.917Z,703.13
2018-04-26T11:48:33.157Z,720.00
2018-04-26T11:49:33.073Z,753.75
2018-04-26T11:50:33.091Z,781.88
2018-04-26T11:51:32.993Z,765.00
2018-04-26T11:52:33.059Z,742.50
2018-04-26T11:53:33.246Z,742.50
2018-04-26T11:54:33.165Z,731.25
2018-04-26T11:55:33.062Z,731.25
2018-04-26T11:56:33.075Z,765.00
2018-04-26T11:57:33.094Z,804.38
2018-04-26T11:58:33.272Z,787.50
2018-04-26T11:59:33.134Z,781.88
2018-04-26T12:00:33.152Z,793.13
2018-04-26T12:01:33.183Z,765.00
2018-04-26T12:02:33.264Z,787.50
2018-04-26T12:03:33.318Z,787.50
2018-04-26T12:04:33.228Z,776.25
2018-04-26T12:05:33.247Z,810.00
2018-04-26T12:06:33.395Z,860.63
2018-04-26T12:07:33.285Z,1085.63
2018-04-26T12:08:33.456Z,928.13
2018-04-26T12:09:33.332Z,900.00
2018-04-26T12:10:33.357Z,871.88
2018-04-26T12:11:33.489Z,849.38
2018-04-26T12:12:33.511Z,804.38
2018-04-26T12:13:33.682Z,815.63
2018-04-26T12:14:33.550Z,978.75
2018-04-26T12:15:33.455Z,1113.75
2018-04-26T12:16:33.475Z,888.75
2018-04-26T12:17:33.607Z,888.75
2018-04-26T12:18:33.793Z,1057.50
2018-04-26T12:19:33.526Z,1136.25
2018-04-26T12:20:33.667Z,1051.88
2018-04-26T12:21:33.570Z,961.88
2018-04-26T12:22:33.596Z,1046.25
2018-04-26T12:23:33.704Z,821.25
2018-04-26T12:24:33.749Z,776.25
2018-04-26T12:25:33.648Z,787.50
2018-04-26T12:26:33.792Z,691.88
2018-04-26T12:27:33.815Z,810.00
2018-04-26T12:28:33.932Z,720.00
2018-04-26T12:29:33.855Z,675.00
2018-04-26T12:30:33.876Z,691.88
2018-04-26T12:31:33.893Z,832.50
2018-04-26T12:32:33.918Z,776.25
2018-04-26T12:33:34.087Z,826.88
2018-04-26T12:34:33.854Z,798.75
2018-04-26T12:35:33.847Z,838.13
2018-04-26T12:36:33.999Z,1068.75
2018-04-26T12:37:33.892Z,1203.75
2018-04-26T12:38:34.023Z,933.75
2018-04-26T12:39:33.931Z,928.13
2018-04-26T12:40:33.975Z,950.63
2018-04-26T12:41:33.979Z,658.13
2018-04-26T12:42:33.994Z,703.13
2018-04-26T12:43:34.246Z,961.88
2018-04-26T12:44:34.034Z,804.38
2018-04-26T12:45:34.061Z,1068.75
2018-04-26T12:46:34.105Z,1063.13
2018-04-26T12:47:34.104Z,945.00
2018-04-26T12:48:34.273Z,646.88
2018-04-26T12:49:34.267Z,905.63
2018-04-26T12:50:34.288Z,793.13
2018-04-26T12:51:34.304Z,973.13
2018-04-26T12:52:34.202Z,680.63
2018-04-26T12:53:34.335Z,641.25
2018-04-26T12:54:34.238Z,765.00
2018-04-26T12:55:34.269Z,607.50
2018-04-26T12:56:34.292Z,646.88
2018-04-26T12:57:34.423Z,675.00
2018-04-26T12:58:34.434Z,680.63
2018-04-26T12:59:34.467Z,697.50
2018-04-26T13:00:34.356Z,826.88
2018-04-26T13:01:34.387Z,753.75
2018-04-26T13:02:34.412Z,945.00
2018-04-26T13:03:34.569Z,804.38
2018-04-26T13:04:34.453Z,742.50
2018-04-26T13:05:34.473Z,675.00